Time;durP1;ratioP1;P1;durP2;ratioP2;P2;SDS_P1;SDS_P2;PMS_P1;PMS_P2;Temp;Humidity;BMP_temperature;BMP_pressure;BME280_temperature;BME280_humidity;BME280_pressure;Samples;Min_cycle;Max_cycle;Signal;HPM_P1;HPM_P2
2021/08/26 00:00:35;;;;;;;21.77;12.93;;;;;;;14.90;70.13;100128.41;5108030;28;20035;-64
2021/08/26 00:08:12;;;;;;;20.20;11.90;;;;;;;14.74;70.08;100125.69;5107922;28;20052;-63
2021/08/26 00:10:38;;;;;;;19.25;12.23;;;;;;;14.72;70.22;100122.31;5108177;28;20036;-64
2021/08/26 00:13:06;;;;;;;15.93;10.70;;;;;;;14.71;70.65;100128.75;5090162;28;20034;-64
2021/08/26 00:15:33;;;;;;;18.02;11.52;;;;;;;14.68;70.90;100137.16;5108389;28;20023;-63
2021/08/26 00:17:59;;;;;;;21.02;11.65;;;;;;;14.60;70.84;100107.44;5108181;28;20024;-63
2021/08/26 00:20:26;;;;;;;21.90;11.98;;;;;;;14.60;70.79;100128.16;5107897;28;20506;-64
2021/08/26 00:22:51;;;;;;;17.58;11.55;;;;;;;14.56;71.14;100121.44;5108123;28;20031;-63
2021/08/26 00:25:17;;;;;;;17.35;11.10;;;;;;;14.46;71.13;100124.28;5107890;28;20042;-63
2021/08/26 00:27:42;;;;;;;18.50;11.02;;;;;;;14.49;71.27;100125.78;5108039;28;20471;-63
2021/08/26 00:30:09;;;;;;;21.98;11.95;;;;;;;14.36;71.45;100107.38;5107849;28;20372;-63
2021/08/26 00:32:34;;;;;;;17.90;11.32;;;;;;;14.40;71.18;100124.06;5111649;28;20531;-63
2021/08/26 00:34:59;;;;;;;24.42;12.13;;;;;;;14.38;71.33;100123.41;5111850;28;20023;-64
2021/08/26 00:37:25;;;;;;;19.30;11.15;;;;;;;14.35;71.63;100112.94;5112000;28;20034;-64
2021/08/26 00:39:50;;;;;;;19.33;11.88;;;;;;;14.33;71.52;100114.94;5112297;28;20027;-63
2021/08/26 00:42:16;;;;;;;20.10;12.07;;;;;;;14.32;71.96;100119.47;5111702;28;20027;-64
2021/08/26 00:44:41;;;;;;;20.77;12.05;;;;;;;14.28;72.27;100120.00;5111728;28;20024;-63
2021/08/26 00:47:11;;;;;;;18.60;11.57;;;;;;;14.24;72.15;100105.13;5111813;28;20043;-64
2021/08/26 00:49:36;;;;;;;21.42;12.15;;;;;;;14.15;72.39;100098.00;5111910;28;20023;-64
2021/08/26 00:52:02;;;;;;;20.92;12.43;;;;;;;14.18;72.66;100105.78;5111523;28;20364;-64
2021/08/26 00:54:28;;;;;;;22.30;12.88;;;;;;;14.15;72.24;100103.41;5111615;28;21074;-63
2021/08/26 00:56:56;;;;;;;25.95;12.98;;;;;;;14.10;72.39;100100.34;5111783;28;20040;-63
2021/08/26 00:59:21;;;;;;;20.75;12.73;;;;;;;14.03;72.82;100097.44;5111426;28;20035;-64
2021/08/26 01:02:02;;;;;;;20.33;11.65;;;;;;;14.00;73.31;100092.38;5111638;28;20689;-64
2021/08/26 01:04:52;;;;;;;19.55;11.82;;;;;;;13.96;72.97;100092.88;5111214;28;20398;-63
2021/08/26 01:07:30;;;;;;;18.65;12.32;;;;;;;13.89;73.19;100095.34;5111263;28;20504;-63
2021/08/26 01:10:07;;;;;;;20.65;12.25;;;;;;;13.84;73.74;100096.84;5111575;28;20531;-63
2021/08/26 01:12:34;;;;;;;20.23;12.18;;;;;;;13.77;73.71;100087.72;5111377;28;20035;-64
2021/08/26 01:15:00;;;;;;;22.40;12.65;;;;;;;13.71;74.29;100089.19;5111182;28;20114;-64
2021/08/26 01:17:30;;;;;;;21.98;11.93;;;;;;;13.70;74.52;100096.44;5111078;28;20034;-65
2021/08/26 01:20:01;;;;;;;21.00;12.95;;;;;;;13.66;73.82;100086.13;5111302;28;20087;-64
2021/08/26 01:22:29;;;;;;;18.83;11.80;;;;;;;13.67;74.25;100090.50;5111062;28;20020;-64
2021/08/26 01:24:58;;;;;;;21.98;13.00;;;;;;;13.66;74.69;100092.38;5111343;28;20490;-64
2021/08/26 01:27:35;;;;;;;20.63;12.65;;;;;;;13.69;75.00;100093.91;5111074;28;20478;-64
2021/08/26 01:30:06;;;;;;;20.65;11.98;;;;;;;13.68;74.75;100098.44;5092595;28;20382;-64
2021/08/26 01:32:31;;;;;;;23.80;13.57;;;;;;;13.67;75.46;100090.50;5111152;28;20024;-64
2021/08/26 01:34:57;;;;;;;21.08;13.10;;;;;;;13.67;75.27;100090.50;5092700;28;20046;-64
2021/08/26 01:37:23;;;;;;;21.73;12.95;;;;;;;13.63;75.26;100094.53;5111112;28;20084;-64
2021/08/26 01:39:50;;;;;;;22.65;13.15;;;;;;;13.62;75.48;100091.00;5110687;28;20392;-63
2021/08/26 01:42:16;;;;;;;16.85;11.68;;;;;;;13.60;75.90;100093.00;5109637;28;20052;-64
2021/08/26 01:44:43;;;;;;;20.00;12.50;;;;;;;13.45;75.24;100072.19;5110493;28;20031;-64
2021/08/26 01:47:17;;;;;;;21.23;13.32;;;;;;;13.58;75.57;100086.09;5110405;28;20062;-64
2021/08/26 01:49:50;;;;;;;20.50;12.27;;;;;;;13.58;75.22;100091.47;5110647;28;20387;-64
2021/08/26 01:52:17;;;;;;;20.90;12.63;;;;;;;13.58;75.38;100092.31;5110272;28;20031;-64
2021/08/26 01:54:59;;;;;;;21.17;12.40;;;;;;;13.57;75.38;100081.69;5110391;28;20076;-65
2021/08/26 01:57:26;;;;;;;21.02;12.55;;;;;;;13.54;75.25;100085.56;5110632;28;20130;-64
2021/08/26 01:59:52;;;;;;;20.85;12.20;;;;;;;13.52;75.72;100079.47;5110496;28;20043;-64
2021/08/26 02:02:17;;;;;;;24.75;13.10;;;;;;;13.52;75.48;100084.84;5110244;28;20095;-64
2021/08/26 02:04:43;;;;;;;22.10;12.85;;;;;;;13.52;75.88;100075.94;5110093;28;20023;-64
2021/08/26 02:07:09;;;;;;;21.88;12.00;;;;;;;13.49;75.84;100071.72;5110360;28;20483;-64
2021/08/26 02:09:34;;;;;;;23.80;12.68;;;;;;;13.49;75.91;100078.97;5110393;28;20102;-64
2021/08/26 02:12:00;;;;;;;22.23;12.65;;;;;;;13.49;75.83;100079.81;5091868;28;20552;-64
2021/08/26 02:14:26;;;;;;;21.98;13.38;;;;;;;13.43;76.22;100075.06;5110126;28;20086;-64
2021/08/26 02:16:51;;;;;;;24.33;13.38;;;;;;;13.35;76.39;100063.38;5091719;28;20424;-64
2021/08/26 02:19:17;;;;;;;23.90;12.93;;;;;;;13.46;76.95;100081.97;5109719;28;20023;-64
2021/08/26 02:21:42;;;;;;;20.17;12.13;;;;;;;13.36;77.09;100073.16;5110152;28;20500;-62
2021/08/26 02:24:08;;;;;;;24.83;12.45;;;;;;;13.45;76.97;100081.09;5110088;28;20031;-62
2021/08/26 02:26:34;;;;;;;22.02;12.90;;;;;;;13.45;77.37;100082.97;5110480;28;20022;-62
2021/08/26 02:29:00;;;;;;;22.77;13.57;;;;;;;13.43;77.27;100080.44;5110012;28;20027;-62
2021/08/26 02:31:27;;;;;;;22.65;13.38;;;;;;;13.43;77.50;100084.97;5109616;28;20027;-63
2021/08/26 02:33:53;;;;;;;20.83;12.98;;;;;;;13.30;77.50;100058.47;5109476;28;20031;-63
2021/08/26 02:36:19;;;;;;;21.90;12.43;;;;;;;13.36;77.78;100075.84;5109627;28;20023;-62
2021/08/26 02:38:44;;;;;;;23.35;13.40;;;;;;;13.39;77.48;100075.53;5109423;28;20387;-63
2021/08/26 02:41:10;;;;;;;20.83;12.13;;;;;;;13.36;77.61;100076.69;5109652;28;20479;-63
2021/08/26 02:43:36;;;;;;;25.48;12.95;;;;;;;13.33;77.51;100074.31;5109350;28;20099;-63
2021/08/26 02:46:02;;;;;;;22.42;12.85;;;;;;;13.30;77.64;100066.56;5109414;28;20522;-62
2021/08/26 02:48:27;;;;;;;20.35;11.80;;;;;;;13.23;77.80;100056.56;5109123;28;20127;-62
2021/08/26 02:50:53;;;;;;;23.92;12.95;;;;;;;13.25;77.85;100058.09;5109275;28;20058;-62
2021/08/26 02:53:19;;;;;;;22.45;13.05;;;;;;;13.26;77.57;100067.84;5109185;28;20023;-61
2021/08/26 02:55:44;;;;;;;24.10;12.65;;;;;;;13.26;78.14;100069.72;5091158;28;20028;-62
2021/08/26 02:58:09;;;;;;;24.63;12.80;;;;;;;13.22;78.12;100065.66;5109105;28;20025;-62
2021/08/26 03:00:35;;;;;;;24.13;12.95;;;;;;;13.20;78.28;100063.13;5109307;28;20047;-61
2021/08/26 03:03:00;;;;;;;25.33;12.77;;;;;;;13.17;78.71;100066.13;5108193;28;20043;-62
2021/08/26 03:05:26;;;;;;;21.48;12.65;;;;;;;13.17;78.73;100067.97;5109068;28;20024;-63
2021/08/26 03:07:51;;;;;;;22.35;13.10;;;;;;;13.18;78.47;100061.56;5108871;28;20416;-63
2021/08/26 03:10:17;;;;;;;27.42;12.90;;;;;;;13.11;78.68;100049.72;5106345;28;20016;-62
2021/08/26 03:12:42;;;;;;;21.58;12.57;;;;;;;13.01;78.98;100043.59;5108645;28;20419;-60
2021/08/26 03:15:08;;;;;;;19.20;11.73;;;;;;;13.08;79.18;100058.97;5090073;28;20035;-62
2021/08/26 03:17:34;;;;;;;24.52;12.13;;;;;;;13.03;79.04;100049.69;5108330;28;20421;-61
2021/08/26 03:19:59;;;;;;;21.05;12.30;;;;;;;13.07;79.86;100062.69;5108665;28;20063;-62
2021/08/26 03:22:24;;;;;;;19.98;11.75;;;;;;;13.06;79.30;100060.97;5108239;28;20015;-62
2021/08/26 03:24:50;;;;;;;20.95;12.70;;;;;;;13.04;79.87;100052.22;5107595;28;20027;-62
2021/08/26 03:27:15;;;;;;;21.63;12.10;;;;;;;13.04;79.84;100062.13;5107810;28;20038;-61
2021/08/26 03:29:41;;;;;;;19.83;11.82;;;;;;;13.01;80.29;100057.91;5107428;28;20031;-61
2021/08/26 03:32:07;;;;;;;23.65;12.50;;;;;;;12.99;80.42;100054.53;5088824;28;20031;-61
2021/08/26 03:34:32;;;;;;;26.38;12.80;;;;;;;12.95;80.15;100055.81;5107329;28;20080;-62
2021/08/26 03:36:58;;;;;;;20.83;11.90;;;;;;;12.91;80.76;100050.91;5107901;28;20439;-62
2021/08/26 03:39:23;;;;;;;22.40;11.20;;;;;;;12.80;80.94;100037.69;5089250;28;20027;-61
2021/08/26 03:41:49;;;;;;;21.92;11.57;;;;;;;12.80;81.23;100046.59;5107346;28;20382;-61
2021/08/26 03:44:14;;;;;;;20.02;10.77;;;;;;;12.76;81.71;100047.91;5089057;28;20024;-63
2021/08/26 03:46:39;;;;;;;20.13;11.52;;;;;;;12.74;81.50;100065.22;5106359;28;20039;-63
2021/08/26 03:49:05;;;;;;;20.98;11.55;;;;;;;12.67;82.31;100051.53;5108036;28;20028;-62
2021/08/26 03:51:30;;;;;;;20.08;11.93;;;;;;;12.63;82.79;100049.28;5107818;28;20020;-62
2021/08/26 03:53:56;;;;;;;18.92;10.63;;;;;;;12.69;81.88;100048.69;5107518;28;20475;-62
2021/08/26 03:56:22;;;;;;;19.02;11.85;;;;;;;12.63;82.36;100044.78;5107389;28;20024;-63
2021/08/26 03:58:47;;;;;;;24.20;12.05;;;;;;;12.63;82.04;100043.91;5108486;28;20066;-62
2021/08/26 04:01:12;;;;;;;18.13;11.32;;;;;;;12.63;81.91;100055.53;5108873;28;20023;-62
2021/08/26 04:03:38;;;;;;;18.73;11.65;;;;;;;12.61;82.56;100049.44;5107953;28;20502;-62
2021/08/26 04:06:03;;;;;;;20.60;11.57;;;;;;;12.56;82.76;100045.53;5089487;28;20027;-62
2021/08/26 04:08:29;;;;;;;17.42;10.68;;;;;;;12.48;82.85;100026.63;5108098;28;20031;-62
2021/08/26 04:10:54;;;;;;;18.42;11.07;;;;;;;12.54;83.29;100043.00;5090147;28;20027;-62
2021/08/26 04:13:20;;;;;;;18.33;10.60;;;;;;;12.55;84.29;100038.47;5108224;28;20600;-63
2021/08/26 04:15:47;;;;;;;19.15;10.77;;;;;;;12.56;83.98;100027.56;5102569;28;20028;-60
2021/08/26 04:18:13;;;;;;;18.60;11.73;;;;;;;12.53;83.96;100022.47;5107074;28;20165;-60
2021/08/26 04:20:38;;;;;;;18.25;10.95;;;;;;;12.59;84.26;100027.25;5106829;28;20417;-60
2021/08/26 04:23:05;;;;;;;20.98;11.35;;;;;;;12.55;84.05;100025.03;5107186;28;20586;-61
2021/08/26 04:25:31;;;;;;;20.65;11.10;;;;;;;12.56;84.25;100030.25;5107144;28;20110;-61
2021/08/26 04:27:57;;;;;;;18.50;10.68;;;;;;;12.61;84.01;100037.84;5107031;28;20084;-62
2021/08/26 04:30:22;;;;;;;19.85;8.98;;;;;;;12.65;83.84;100040.09;5106904;28;20043;-61
2021/08/26 04:32:49;;;;;;;18.10;10.65;;;;;;;12.69;84.28;100029.84;5107411;28;20797;-61
2021/08/26 04:35:15;;;;;;;20.70;11.40;;;;;;;12.70;84.17;100031.53;5107367;28;20023;-61
2021/08/26 04:37:40;;;;;;;18.98;10.27;;;;;;;12.73;84.34;100033.91;5107225;28;20379;-61
2021/08/26 04:40:06;;;;;;;19.33;10.68;;;;;;;12.83;84.13;100045.47;5107184;28;20030;-61
2021/08/26 04:42:32;;;;;;;17.92;9.88;;;;;;;12.92;84.01;100045.34;5106846;28;20383;-62
2021/08/26 04:44:57;;;;;;;18.10;10.27;;;;;;;13.05;83.18;100047.66;5107182;28;20036;-62
2021/08/26 04:47:23;;;;;;;17.83;10.38;;;;;;;13.14;82.46;100041.34;5106409;28;20067;-61
2021/08/26 04:49:48;;;;;;;17.50;10.43;;;;;;;13.16;82.04;100021.31;5107674;28;20038;-61
2021/08/26 04:52:14;;;;;;;19.88;10.10;;;;;;;13.28;81.40;100025.44;5107280;28;20027;-61
2021/08/26 04:54:39;;;;;;;19.48;10.35;;;;;;;13.44;80.85;100030.09;5107131;28;20020;-61
2021/08/26 04:57:04;;;;;;;22.05;11.73;;;;;;;13.56;79.74;100034.19;5107091;28;20104;-62
2021/08/26 04:59:30;;;;;;;18.40;10.77;;;;;;;13.66;79.60;100029.53;5089215;28;20023;-61
2021/08/26 05:01:55;;;;;;;24.67;9.88;;;;;;;13.81;79.28;100032.47;5108047;28;20023;-62
2021/08/26 05:04:23;;;;;;;20.63;9.90;;;;;;;13.85;78.82;100013.09;5089294;28;20100;-62
2021/08/26 05:06:50;;;;;;;21.08;11.32;;;;;;;14.03;77.63;100021.09;5107970;28;20035;-62
2021/08/26 05:09:17;;;;;;;22.02;10.60;;;;;;;14.09;77.23;100015.88;5108044;28;20035;-62
2021/08/26 05:11:43;;;;;;;21.58;9.85;;;;;;;14.32;76.22;100016.97;5107631;28;20027;-62
2021/08/26 05:14:08;;;;;;;19.73;10.27;;;;;;;14.27;76.28;100005.84;5107854;28;20028;-63
2021/08/26 05:16:34;;;;;;;20.17;11.32;;;;;;;14.42;76.18;100019.53;5107793;28;20038;-63
2021/08/26 05:19:00;;;;;;;19.98;10.27;;;;;;;14.45;75.51;99998.44;5111673;28;20035;-61
2021/08/26 05:21:25;;;;;;;22.75;11.13;;;;;;;14.63;75.28;100009.09;5111111;28;20262;-63
2021/08/26 05:23:50;;;;;;;26.75;10.75;;;;;;;14.71;75.31;100009.97;5111350;28;20084;-61
2021/08/26 05:26:16;;;;;;;21.83;10.45;;;;;;;14.79;75.22;100001.00;5111526;28;20026;-62
2021/08/26 05:28:41;;;;;;;22.77;10.02;;;;;;;14.89;75.66;100001.66;5111145;28;20028;-61
2021/08/26 05:31:07;;;;;;;18.23;9.55;;;;;;;15.02;75.16;99996.56;5111466;28;20023;-62
2021/08/26 05:33:33;;;;;;;18.58;9.73;;;;;;;15.15;75.38;100000.44;5110869;28;20471;-61
2021/08/26 05:35:58;;;;;;;20.50;10.23;;;;;;;15.28;75.18;99994.50;5075538;28;20395;-61
2021/08/26 05:38:24;;;;;;;19.20;10.43;;;;;;;15.42;74.43;99993.84;5109255;28;20036;-62
2021/08/26 05:40:49;;;;;;;16.08;9.88;;;;;;;15.52;74.44;99989.94;5090569;28;20094;-62
2021/08/26 05:43:15;;;;;;;21.10;10.63;;;;;;;15.55;74.04;99980.63;5108703;28;20023;-61
2021/08/26 05:45:40;;;;;;;18.75;9.40;;;;;;;15.78;73.73;99989.66;5109400;28;20034;-61
2021/08/26 05:48:06;;;;;;;20.05;10.38;;;;;;;15.93;73.02;99992.47;5109624;28;20086;-61
2021/08/26 05:50:31;;;;;;;17.27;9.95;;;;;;;16.03;72.27;99985.81;5110020;28;20020;-61
2021/08/26 05:52:57;;;;;;;20.40;10.20;;;;;;;16.22;72.20;99989.94;5110116;28;20031;-62
2021/08/26 05:55:22;;;;;;;21.42;10.70;;;;;;;16.32;71.81;99985.13;5110002;28;20019;-62
2021/08/26 05:57:48;;;;;;;22.17;9.73;;;;;;;16.47;71.63;99992.31;5110823;28;20035;-62
2021/08/26 06:00:14;;;;;;;16.88;9.05;;;;;;;16.62;71.87;99987.81;5110240;28;20019;-62
2021/08/26 06:02:39;;;;;;;20.42;9.68;;;;;;;16.81;71.23;99986.47;5110092;28;20091;-62
2021/08/26 06:05:06;;;;;;;20.30;10.18;;;;;;;16.89;71.46;99987.25;5110364;28;20135;-62
2021/08/26 06:07:31;;;;;;;17.63;9.65;;;;;;;17.02;71.85;99987.47;5110095;28;20427;-61
2021/08/26 06:09:57;;;;;;;20.27;9.90;;;;;;;17.20;71.30;99989.81;5091926;28;20168;-62
2021/08/26 06:12:22;;;;;;;20.83;9.35;;;;;;;17.34;71.67;99987.13;5109763;28;20115;-62
2021/08/26 06:14:48;;;;;;;18.77;9.90;;;;;;;17.47;70.70;99987.34;5110400;28;20153;-62
2021/08/26 06:17:13;;;;;;;22.33;9.55;;;;;;;17.68;70.04;99984.75;5110254;28;20039;-62
2021/08/26 06:19:39;;;;;;;17.92;9.35;;;;;;;17.93;68.99;99994.25;5109844;28;20023;-62
2021/08/26 06:22:04;;;;;;;16.95;10.00;;;;;;;18.08;68.79;99986.94;5110059;28;20054;-61
2021/08/26 06:24:30;;;;;;;20.98;10.40;;;;;;;18.22;68.23;99987.09;5109583;28;20055;-61
2021/08/26 06:26:58;;;;;;;17.60;9.48;;;;;;;18.33;67.49;99984.72;5109751;28;20506;-62
2021/08/26 06:29:24;;;;;;;20.35;10.15;;;;;;;18.39;67.90;99983.13;5108851;28;20032;-62
2021/08/26 06:31:50;;;;;;;19.05;10.05;;;;;;;18.53;66.87;99972.19;5109594;28;20046;-63
2021/08/26 06:34:16;;;;;;;23.45;9.88;;;;;;;18.65;66.59;99958.94;5089441;28;20020;-62
2021/08/26 06:36:42;;;;;;;21.50;10.18;;;;;;;18.94;65.39;99981.38;5109618;28;20076;-63
2021/08/26 06:39:07;;;;;;;27.60;11.52;;;;;;;19.14;64.21;99974.22;5109605;28;20023;-62
2021/08/26 06:41:33;;;;;;;21.10;10.40;;;;;;;19.37;61.73;99974.81;5109464;28;20023;-62
2021/08/26 06:43:58;;;;;;;17.33;9.73;;;;;;;19.44;60.93;99972.16;5109395;28;20028;-62
2021/08/26 06:46:24;;;;;;;16.15;9.60;;;;;;;19.58;60.17;99974.72;5109310;28;20044;-62
2021/08/26 06:48:51;;;;;;;16.48;9.32;;;;;;;19.67;59.52;99973.53;5109429;28;20035;-62
2021/08/26 06:51:16;;;;;;;17.40;9.48;;;;;;;19.84;58.45;99974.91;5109458;28;20421;-62
2021/08/26 06:53:42;;;;;;;15.82;9.60;;;;;;;20.05;57.61;99957.56;5109303;28;20019;-62
2021/08/26 06:56:07;;;;;;;17.63;8.85;;;;;;;20.12;57.53;99958.50;5109268;28;20103;-62
2021/08/26 06:58:34;;;;;;;18.00;8.32;;;;;;;20.24;57.26;99965.00;5109256;28;20403;-62
2021/08/26 07:00:59;;;;;;;13.05;8.38;;;;;;;20.39;55.99;99962.09;5109164;28;20205;-62
2021/08/26 07:03:25;;;;;;;19.55;9.73;;;;;;;20.53;54.83;99948.31;5108844;28;20027;-63
2021/08/26 07:05:50;;;;;;;14.95;8.48;;;;;;;20.61;55.03;99955.44;5090990;28;20068;-62
2021/08/26 07:08:15;;;;;;;15.23;9.32;;;;;;;20.76;54.51;99953.38;5109313;28;20028;-63
2021/08/26 07:10:41;;;;;;;17.85;9.20;;;;;;;20.85;54.52;99949.38;5090530;28;20116;-63
2021/08/26 07:13:07;;;;;;;18.65;9.70;;;;;;;21.01;54.21;99959.91;5108874;28;20450;-63
2021/08/26 07:15:32;;;;;;;16.60;9.70;;;;;;;21.10;53.18;99945.00;5108595;28;20081;-62
2021/08/26 07:17:58;;;;;;;21.70;10.90;;;;;;;21.27;52.20;99954.41;5090577;28;20460;-63
2021/08/26 07:20:23;;;;;;;20.02;10.32;;;;;;;21.33;51.42;99942.66;5108478;28;20102;-63
2021/08/26 07:22:49;;;;;;;19.98;10.60;;;;;;;21.49;50.94;99950.38;5109104;28;20080;-63
2021/08/26 07:25:15;;;;;;;23.65;11.05;;;;;;;21.65;50.24;99966.31;5108812;28;20561;-63
2021/08/26 07:27:40;;;;;;;20.65;10.68;;;;;;;21.70;50.39;99958.31;5108218;28;20031;-63
2021/08/26 07:30:06;;;;;;;19.63;10.55;;;;;;;21.88;49.29;99959.34;5090359;28;20066;-63
2021/08/26 07:32:32;;;;;;;20.13;10.35;;;;;;;21.89;49.18;99965.63;5108583;28;20031;-63
2021/08/26 07:34:57;;;;;;;18.20;9.90;;;;;;;21.92;49.32;99951.53;5108465;28;20080;-63
2021/08/26 07:37:23;;;;;;;17.92;9.55;;;;;;;22.04;49.07;99955.28;5108190;28;20039;-63
2021/08/26 07:39:48;;;;;;;15.35;9.32;;;;;;;22.21;47.95;99957.28;5108761;28;20410;-63
2021/08/26 07:42:14;;;;;;;16.25;9.38;;;;;;;22.32;47.19;99944.84;5107528;28;20463;-63
2021/08/26 07:44:39;;;;;;;16.48;8.57;;;;;;;22.38;47.01;99951.31;5108315;28;20038;-63
2021/08/26 07:47:05;;;;;;;12.80;8.15;;;;;;;22.45;47.16;99958.41;5108140;28;20096;-63
2021/08/26 07:49:30;;;;;;;16.02;9.30;;;;;;;22.58;46.78;99954.78;5108096;28;20031;-63
2021/08/26 07:51:56;;;;;;;12.98;7.60;;;;;;;22.62;46.15;99947.81;5090028;28;20102;-64
2021/08/26 07:54:21;;;;;;;18.70;8.02;;;;;;;22.74;45.76;99955.09;5108013;28;20023;-63
2021/08/26 07:56:47;;;;;;;17.05;8.02;;;;;;;22.86;45.29;99947.84;5109002;28;20055;-63
2021/08/26 07:59:12;;;;;;;18.10;8.80;;;;;;;22.90;45.31;99940.03;5107894;28;20034;-63
2021/08/26 08:01:38;;;;;;;15.05;7.63;;;;;;;23.00;45.36;99952.16;5108111;28;20022;-63
2021/08/26 08:04:03;;;;;;;13.93;7.13;;;;;;;23.13;45.27;99948.44;5089842;28;20047;-63
2021/08/26 08:06:29;;;;;;;10.02;6.05;;;;;;;23.35;44.99;99953.34;5107951;28;20036;-64
2021/08/26 08:08:54;;;;;;;14.10;8.15;;;;;;;23.50;45.16;99942.84;5108186;28;20070;-64
2021/08/26 08:11:19;;;;;;;23.90;8.13;;;;;;;23.77;44.30;99946.94;5108064;28;20028;-63
2021/08/26 08:13:45;;;;;;;11.40;7.20;;;;;;;24.01;43.59;99940.59;5108079;28;20023;-63
2021/08/26 08:16:11;;;;;;;16.80;7.60;;;;;;;24.21;43.19;99926.59;5107930;28;20044;-63
2021/08/26 08:18:37;;;;;;;13.32;6.95;;;;;;;24.81;41.89;99941.97;5107788;28;20518;-63
2021/08/26 08:21:02;;;;;;;15.45;7.10;;;;;;;25.26;40.96;99912.91;5107971;28;20019;-63
2021/08/26 08:23:31;;;;;;;10.27;6.70;;;;;;;25.82;40.45;99934.22;5107742;28;20106;-63
2021/08/26 08:25:57;;;;;;;16.10;7.10;;;;;;;26.49;38.70;99922.41;5108000;28;20036;-63
2021/08/26 08:28:23;;;;;;;15.45;6.43;;;;;;;26.89;38.47;99925.09;5107549;28;20030;-63
2021/08/26 08:30:48;;;;;;;13.68;7.32;;;;;;;27.42;37.08;99918.00;5108031;28;20043;-62
2021/08/26 08:33:14;;;;;;;10.77;6.72;;;;;;;27.81;36.50;99914.13;5107545;28;21829;-63
2021/08/26 08:35:39;;;;;;;9.35;6.22;;;;;;;27.73;36.67;99909.03;5107885;28;20100;-63
2021/08/26 08:38:05;;;;;;;9.13;6.35;;;;;;;27.82;36.51;99915.78;5089577;28;20020;-63
2021/08/26 08:40:31;;;;;;;11.13;7.15;;;;;;;27.62;36.89;99912.75;5089086;28;20028;-63
2021/08/26 08:42:58;;;;;;;10.48;7.43;;;;;;;27.50;37.12;99916.72;5107621;28;20088;-63
2021/08/26 08:45:23;;;;;;;11.27;7.03;;;;;;;27.42;37.33;99914.38;5107845;28;20039;-63
2021/08/26 08:47:51;;;;;;;16.00;6.78;;;;;;;27.54;36.73;99912.38;5107547;28;20043;-63
2021/08/26 08:50:20;;;;;;;12.57;6.88;;;;;;;27.42;37.12;99914.38;5089183;28;20058;-63
2021/08/26 08:52:46;;;;;;;9.68;6.82;;;;;;;27.16;37.94;99910.41;5109605;28;20031;-63
2021/08/26 08:55:12;;;;;;;13.75;7.22;;;;;;;27.06;37.99;99904.75;5111351;28;20047;-63
2021/08/26 08:57:42;;;;;;;10.85;6.25;;;;;;;26.95;37.95;99891.88;5111580;28;20028;-62
2021/08/26 09:00:10;;;;;;;12.30;6.93;;;;;;;26.98;38.13;99896.06;5111893;28;20019;-63
2021/08/26 09:02:35;;;;;;;13.57;7.40;;;;;;;26.88;37.96;99882.97;5111159;28;20483;-64
2021/08/26 09:05:02;;;;;;;13.85;7.45;;;;;;;27.06;37.46;99890.97;5111507;28;20027;-64
2021/08/26 09:07:30;;;;;;;14.57;6.88;;;;;;;26.94;37.05;99886.63;5111022;28;20027;-64
2021/08/26 09:09:56;;;;;;;10.43;5.70;;;;;;;26.67;37.40;99888.38;5111161;28;20043;-63
2021/08/26 09:12:40;;;;;;;9.93;5.65;;;;;;;26.56;38.01;99898.34;5111198;28;20077;-64
2021/08/26 09:15:08;;;;;;;12.00;6.00;;;;;;;26.28;37.64;99890.94;5111615;28;20019;-63
2021/08/26 09:17:33;;;;;;;11.77;5.30;;;;;;;26.19;37.92;99895.19;5110767;28;20027;-63
2021/08/26 09:20:07;;;;;;;7.78;5.35;;;;;;;26.15;37.83;99898.69;5111599;28;20035;-63
2021/08/26 09:22:33;;;;;;;10.52;5.72;;;;;;;26.02;37.89;99897.03;5110592;28;20038;-64
2021/08/26 09:24:58;;;;;;;10.05;5.55;;;;;;;25.96;38.02;99899.91;5111246;28;20427;-63
2021/08/26 09:27:36;;;;;;;7.22;5.00;;;;;;;25.94;38.03;99893.81;5110799;28;20114;-64
2021/08/26 09:30:08;;;;;;;10.57;5.25;;;;;;;25.91;38.20;99895.16;5111122;28;20020;-63
2021/08/26 09:32:41;;;;;;;11.57;5.75;;;;;;;25.86;38.13;99902.47;5110363;28;20024;-63
2021/08/26 09:35:16;;;;;;;9.63;4.75;;;;;;;25.77;38.24;99882.78;5110981;28;20020;-64
2021/08/26 09:38:02;;;;;;;9.65;5.20;;;;;;;25.70;37.74;99878.47;5110679;28;20038;-63
2021/08/26 09:40:47;;;;;;;13.93;6.60;;;;;;;25.63;38.20;99877.78;5110497;28;20471;-63
2021/08/26 09:43:12;;;;;;;8.95;5.72;;;;;;;25.68;38.31;99889.72;5110284;28;20027;-64
2021/08/26 09:45:40;;;;;;;8.48;4.82;;;;;;;25.69;38.64;99882.28;5110819;28;20039;-64
2021/08/26 09:48:14;;;;;;;12.95;5.95;;;;;;;25.71;38.45;99880.16;5110427;28;20047;-65
2021/08/26 09:50:40;;;;;;;;;;;;;;;25.67;38.28;99867.97;5111334;28;20386;-65
2021/08/26 09:53:07;;;;;;;9.10;5.05;;;;;;;25.68;38.11;99864.16;5107946;28;19912;-65
2021/08/26 09:55:56;;;;;;;11.80;5.70;;;;;;;25.82;37.60;99866.38;5110051;28;20036;-65
2021/08/26 09:58:27;;;;;;;16.95;6.78;;;;;;;25.68;37.77;99873.22;5110313;28;20035;-65
2021/08/26 10:01:25;;;;;;;10.27;5.20;;;;;;;25.59;38.10;99857.34;5110577;28;20031;-65
2021/08/26 10:03:51;;;;;;;10.73;6.18;;;;;;;25.58;38.44;99847.47;5109444;28;20530;-65
2021/08/26 10:06:18;;;;;;;8.02;5.22;;;;;;;25.64;38.07;99866.56;5110248;28;20443;-65
2021/08/26 10:08:47;;;;;;;10.65;5.78;;;;;;;25.69;37.81;99854.81;5110123;28;20019;-65
2021/08/26 10:11:18;;;;;;;8.90;5.43;;;;;;;25.69;37.89;99852.91;5110367;28;20031;-65
2021/08/26 10:13:45;;;;;;;9.55;5.25;;;;;;;25.71;37.93;99837.03;5109856;28;20038;-65
2021/08/26 10:16:10;;;;;;;7.72;5.50;;;;;;;25.82;37.84;99847.13;5110213;28;20080;-65
2021/08/26 10:18:36;;;;;;;12.50;5.10;;;;;;;25.88;36.98;99840.66;5109412;28;20023;-65
2021/08/26 10:21:03;;;;;;;9.75;5.00;;;;;;;25.89;37.19;99850.56;5110052;28;20102;-65
2021/08/26 10:23:30;;;;;;;10.85;5.70;;;;;;;25.84;37.08;99844.16;5091458;28;20028;-65
2021/08/26 10:25:58;;;;;;;6.93;4.18;;;;;;;25.92;36.99;99860.25;5110050;28;20035;-65
2021/08/26 10:28:25;;;;;;;11.63;5.03;;;;;;;25.73;37.18;99834.84;5109891;28;20031;-65
2021/08/26 10:30:50;;;;;;;10.50;5.07;;;;;;;25.83;37.23;99859.78;5109587;28;20050;-65
2021/08/26 10:33:24;;;;;;;8.60;4.97;;;;;;;25.80;36.98;99862.22;5091145;28;20050;-65
2021/08/26 10:35:49;;;;;;;8.73;4.78;;;;;;;25.75;37.20;99856.59;5109788;28;20069;-65
2021/08/26 10:38:28;;;;;;;8.90;5.00;;;;;;;25.69;36.86;99860.31;5109681;28;20399;-65
2021/08/26 10:40:59;;;;;;;8.75;5.07;;;;;;;25.54;37.01;99849.03;5091485;28;20073;-65
2021/08/26 10:43:38;;;;;;;8.05;4.97;;;;;;;25.51;36.98;99853.09;5091167;28;20023;-64
2021/08/26 10:46:06;;;;;;;7.57;4.93;;;;;;;25.49;36.50;99851.66;5109365;28;20144;-64
2021/08/26 10:48:32;;;;;;;8.30;4.60;;;;;;;25.34;36.53;99841.16;5109029;28;20027;-64
2021/08/26 10:51:39;;;;;;;10.52;5.22;;;;;;;25.31;37.07;99840.84;5109304;28;20024;-64
2021/08/26 10:54:34;;;;;;;8.65;4.88;;;;;;;25.29;37.11;99835.56;5109065;28;20020;-64
2021/08/26 10:57:29;;;;;;;13.75;5.82;;;;;;;25.34;36.94;99834.88;5091321;28;20054;-64
2021/08/26 10:59:54;;;;;;;12.10;5.43;;;;;;;25.35;36.84;99823.63;5109430;28;20047;-64
2021/08/26 11:02:52;;;;;;;9.40;4.82;;;;;;;25.21;38.05;99822.19;5090339;28;20078;-64
2021/08/26 11:05:31;;;;;;;8.65;4.95;;;;;;;25.21;37.22;99819.44;5063440;28;20047;-64
2021/08/26 11:07:56;;;;;;;8.98;4.88;;;;;;;25.18;37.30;99828.16;5109313;28;20027;-63
2021/08/26 11:10:29;;;;;;;7.53;4.47;;;;;;;25.20;37.08;99825.16;5108691;28;20033;-64
2021/08/26 11:13:31;;;;;;;7.63;4.43;;;;;;;25.21;37.40;99824.13;5108969;28;20034;-65
2021/08/26 11:15:57;;;;;;;6.30;4.45;;;;;;;25.29;36.81;99834.72;5109026;28;20108;-64
2021/08/26 11:18:29;;;;;;;7.28;4.45;;;;;;;25.26;36.65;99802.25;5108554;28;20057;-64
2021/08/26 11:20:55;;;;;;;5.50;3.85;;;;;;;25.43;36.01;99814.16;5109154;28;20098;-64
2021/08/26 11:23:46;;;;;;;7.75;4.63;;;;;;;25.48;35.64;99820.63;5108429;28;20072;-64
2021/08/26 11:26:41;;;;;;;7.43;4.47;;;;;;;25.54;35.07;99813.31;5090388;28;20069;-64